createdAt,value
2022-09-16T00:02:14.294Z,97415.80
2022-09-16T00:04:43.470Z,97407.78
2022-09-16T00:07:14.681Z,97411.41
2022-09-16T00:09:48.315Z,97414.39
2022-09-16T00:12:16.391Z,97418.60
2022-09-16T00:14:44.431Z,97418.21
2022-09-16T00:17:23.995Z,97413.86
2022-09-16T00:19:52.181Z,97413.60
2022-09-16T00:22:21.334Z,97414.80
2022-09-16T00:24:49.899Z,97403.06
2022-09-16T00:27:17.991Z,97395.52
2022-09-16T00:29:46.196Z,97399.17
2022-09-16T00:32:14.374Z,97403.61
2022-09-16T00:34:46.096Z,97402.34
2022-09-16T00:37:15.427Z,97393.23
2022-09-16T00:39:43.784Z,97394.44
2022-09-16T00:42:12.364Z,97400.16
2022-09-16T00:45:04.469Z,97413.24
2022-09-16T00:47:38.394Z,97420.66
2022-09-16T00:50:36.550Z,97423.23
2022-09-16T00:53:14.150Z,97430.16
2022-09-16T00:55:45.433Z,97431.77
2022-09-16T00:58:19.579Z,97437.18
2022-09-16T01:00:51.319Z,97433.39
2022-09-16T01:03:28.234Z,97426.41
2022-09-16T01:05:56.385Z,97428.55
2022-09-16T01:08:25.985Z,97434.04
2022-09-16T01:10:54.048Z,97434.05
2022-09-16T01:13:26.380Z,97424.52
2022-09-16T01:16:04.555Z,97418.23
2022-09-16T01:18:35.181Z,97416.53
2022-09-16T01:21:05.957Z,97418.34
2022-09-16T01:23:52.781Z,97419.45
2022-09-16T01:26:27.944Z,97412.33
2022-09-16T01:28:58.796Z,97411.52
2022-09-16T01:31:40.043Z,97411.77
2022-09-16T01:34:24.409Z,97411.55
2022-09-16T01:37:13.108Z,97411.98
2022-09-16T01:40:10.369Z,97405.77
2022-09-16T01:42:38.505Z,97403.78
2022-09-16T01:45:17.588Z,97411.49
2022-09-16T01:48:06.597Z,97413.99
2022-09-16T01:50:40.534Z,97414.67
2022-09-16T01:53:17.147Z,97414.77
2022-09-16T01:55:58.561Z,97414.92
2022-09-16T01:58:43.736Z,97414.23
2022-09-16T02:01:26.315Z,97416.27
2022-09-16T02:04:00.618Z,97424.37
2022-09-16T02:06:30.515Z,97428.86
2022-09-16T02:09:05.308Z,97428.29
2022-09-16T02:11:38.562Z,97429.09
2022-09-16T02:14:16.115Z,97428.53
2022-09-16T02:16:58.586Z,97430.21
2022-09-16T02:19:37.982Z,97428.81
2022-09-16T02:22:09.543Z,97417.66
2022-09-16T02:24:39.599Z,97412.58
2022-09-16T02:27:10.911Z,97411.35
2022-09-16T02:29:44.354Z,97404.23
2022-09-16T02:32:21.654Z,97397.20
2022-09-16T02:34:51.635Z,97389.27
2022-09-16T02:37:24.250Z,97391.31
2022-09-16T02:39:59.834Z,97402.77
2022-09-16T02:42:28.973Z,97406.73
2022-09-16T02:45:00.844Z,97406.45
2022-09-16T02:47:35.521Z,97396.79
2022-09-16T02:50:35.031Z,97392.80
2022-09-16T02:53:08.073Z,97376.86
2022-09-16T02:55:44.877Z,97371.46
2022-09-16T02:58:13.111Z,97382.50
2022-09-16T03:00:49.422Z,97386.63
2022-09-16T03:03:17.722Z,97374.34
2022-09-16T03:06:01.335Z,97366.60
2022-09-16T03:08:29.426Z,97364.79
2022-09-16T03:10:59.258Z,97373.52
2022-09-16T03:13:40.797Z,97375.22
2022-09-16T03:16:33.025Z,97370.83
2022-09-16T03:19:24.220Z,97376.27
2022-09-16T03:22:11.825Z,97381.33
2022-09-16T03:24:44.576Z,97385.52
2022-09-16T03:27:16.965Z,97387.27
2022-09-16T03:29:57.741Z,97393.71
2022-09-16T03:32:33.588Z,97397.02
2022-09-16T03:35:20.393Z,97398.70
2022-09-16T03:37:53.091Z,97400.77
2022-09-16T03:40:21.550Z,97403.63
2022-09-16T03:42:53.783Z,97399.52
2022-09-16T03:45:26.483Z,97406.40
2022-09-16T03:48:00.303Z,97408.08
2022-09-16T03:50:29.526Z,97415.39
2022-09-16T03:53:02.678Z,97421.33
2022-09-16T03:55:30.732Z,97419.29
2022-09-16T03:58:02.449Z,97411.30
2022-09-16T04:00:35.314Z,97416.70
2022-09-16T04:03:12.558Z,97423.31
2022-09-16T04:05:42.895Z,97434.60
2022-09-16T04:08:15.051Z,97427.75
2022-09-16T04:10:52.852Z,97429.92
2022-09-16T04:13:34.706Z,97428.75
2022-09-16T04:16:08.477Z,97429.08
2022-09-16T04:18:37.940Z,97431.82
2022-09-16T04:21:10.413Z,97435.61
2022-09-16T04:23:45.574Z,97443.21
2022-09-16T04:26:21.712Z,97438.89
2022-09-16T04:28:56.617Z,97441.59
2022-09-16T04:31:25.981Z,97445.74
2022-09-16T04:33:54.192Z,97445.66
2022-09-16T04:36:23.115Z,97457.46
2022-09-16T04:38:52.512Z,97460.70
2022-09-16T04:41:30.814Z,97464.94
2022-09-16T04:44:03.197Z,97463.44
2022-09-16T04:46:59.943Z,97460.09
2022-09-16T04:52:58.597Z,97446.83
2022-09-16T07:51:52.060Z,97536.30
2022-09-16T07:54:21.856Z,97540.05
2022-09-16T07:57:13.330Z,97530.52
2022-09-16T08:14:28.665Z,97532.27
2022-09-16T08:16:56.726Z,97536.05
2022-09-16T08:27:24.885Z,97534.45
2022-09-16T08:30:11.200Z,97543.11
2022-09-16T08:32:39.566Z,97549.77
2022-09-16T08:35:09.501Z,97545.65
2022-09-16T08:37:39.987Z,97547.63
2022-09-16T08:40:19.067Z,97550.41
2022-09-16T08:43:12.739Z,97542.73
2022-09-16T08:45:51.094Z,97537.19
2022-09-16T08:49:01.795Z,97534.11
2022-09-16T08:51:55.481Z,97530.90
2022-09-16T09:48:04.599Z,97493.36
2022-09-16T09:51:03.961Z,97492.66
2022-09-16T09:57:27.745Z,97478.98
2022-09-16T10:03:56.329Z,97485.13
2022-09-16T10:06:29.110Z,97489.90
2022-09-16T10:17:19.946Z,97518.78
2022-09-16T10:27:22.290Z,97526.41
2022-09-16T10:30:42.740Z,97525.95
2022-09-16T10:50:52.448Z,97500.39
2022-09-16T10:53:30.684Z,97503.29
2022-09-16T10:56:03.614Z,97504.15
2022-09-16T10:58:32.515Z,97495.05
2022-09-16T11:01:08.884Z,97487.35
2022-09-16T11:03:55.871Z,97483.77
2022-09-16T11:06:52.974Z,97471.89
2022-09-16T11:09:36.648Z,97470.41
2022-09-16T11:19:12.275Z,97469.00
2022-09-16T11:22:16.737Z,97466.08
2022-09-16T11:25:52.877Z,97463.06
2022-09-16T11:29:27.391Z,97459.53
2022-09-16T11:52:42.121Z,97433.25
2022-09-16T11:55:28.357Z,97427.30
2022-09-16T12:01:35.666Z,97428.49
2022-09-16T12:04:13.849Z,97427.04
2022-09-16T12:06:54.155Z,97422.71
2022-09-16T12:09:27.225Z,97420.99
2022-09-16T12:12:06.604Z,97426.08
2022-09-16T12:14:38.215Z,97426.83
2022-09-16T12:17:14.985Z,97420.87
2022-09-16T12:20:03.566Z,97422.41
2022-09-16T12:22:44.809Z,97425.23
2022-09-16T12:25:17.636Z,97416.06
2022-09-16T12:27:48.617Z,97418.38
2022-09-16T12:30:20.749Z,97414.26
2022-09-16T12:33:06.330Z,97413.48
2022-09-16T12:35:38.188Z,97415.55
2022-09-16T12:38:10.668Z,97412.81
2022-09-16T12:40:49.006Z,97407.33
2022-09-16T12:43:19.737Z,97407.83
2022-09-16T12:46:35.781Z,97412.01
2022-09-16T12:50:38.609Z,97406.31
2022-09-16T12:54:05.521Z,97404.36
2022-09-16T13:09:22.134Z,97394.65
2022-09-16T13:12:39.215Z,97390.20
2022-09-16T13:15:02.502Z,97383.80
2022-09-16T13:17:39.387Z,97380.80
2022-09-16T13:20:33.541Z,97382.10
2022-09-16T13:23:08.428Z,97378.12
2022-09-16T13:26:43.190Z,97379.31
2022-09-16T13:29:30.707Z,97383.41
2022-09-16T13:39:54.298Z,97394.43
2022-09-16T13:43:33.078Z,97392.39
2022-09-16T13:46:11.830Z,97390.97
2022-09-16T13:48:44.507Z,97389.28
2022-09-16T13:51:18.583Z,97390.77
2022-09-16T13:57:45.756Z,97395.94
2022-09-16T14:20:02.257Z,97381.20
2022-09-16T15:12:09.981Z,97385.34
2022-09-16T15:19:20.339Z,97379.92
2022-09-16T15:22:05.566Z,97378.34
2022-09-16T15:46:57.557Z,97368.30
2022-09-16T15:53:24.509Z,97362.71
2022-09-16T15:56:50.125Z,97366.55
2022-09-16T15:59:26.089Z,97365.30
2022-09-16T16:02:26.646Z,97359.84
2022-09-16T16:05:05.518Z,97355.42
2022-09-16T16:07:47.596Z,97352.85
2022-09-16T16:10:19.199Z,97353.63
2022-09-16T16:12:49.504Z,97356.84
2022-09-16T16:15:20.404Z,97356.66
2022-09-16T16:17:50.839Z,97356.41
2022-09-16T16:20:21.144Z,97363.66
2022-09-16T16:22:50.616Z,97368.33
2022-09-16T16:25:21.348Z,97365.67
2022-09-16T16:27:52.048Z,97366.89
2022-09-16T16:30:24.809Z,97374.50
2022-09-16T16:32:53.054Z,97379.45
2022-09-16T16:35:21.367Z,97378.52
2022-09-16T16:38:10.513Z,97381.64
2022-09-16T16:40:54.001Z,97387.66
2022-09-16T16:43:24.076Z,97390.77
2022-09-16T16:45:57.190Z,97391.64
2022-09-16T16:48:27.301Z,97394.45
2022-09-16T16:51:08.898Z,97396.70
2022-09-16T16:53:37.465Z,97401.23
2022-09-16T16:56:14.485Z,97410.29
2022-09-16T16:58:45.771Z,97413.86
2022-09-16T17:01:18.574Z,97418.46
2022-09-16T17:11:20.160Z,97470.04
2022-09-16T17:13:58.328Z,97465.32
2022-09-16T17:16:51.822Z,97449.51
2022-09-16T17:19:20.149Z,97446.11
2022-09-16T17:21:51.466Z,97470.20
2022-09-16T17:24:20.172Z,97478.94
2022-09-16T17:26:48.483Z,97467.39
2022-09-16T17:29:36.724Z,97489.30
2022-09-16T17:32:08.449Z,97491.80
2022-09-16T17:50:23.086Z,97487.33
2022-09-16T17:52:54.622Z,97480.83
2022-09-16T17:55:48.957Z,97482.65
2022-09-16T17:58:44.266Z,97480.27
2022-09-16T18:01:40.353Z,97505.89
2022-09-16T18:05:01.471Z,97508.13
2022-09-16T18:07:58.266Z,97516.98
2022-09-16T18:11:14.197Z,97516.02
2022-09-16T18:13:44.044Z,97509.45
2022-09-16T18:16:18.095Z,97503.69
2022-09-16T18:18:50.097Z,97503.80
2022-09-16T18:21:20.562Z,97508.85
2022-09-16T18:24:14.735Z,97505.04
2022-09-16T18:26:44.614Z,97506.73
2022-09-16T18:29:14.051Z,97504.54
2022-09-16T18:31:46.383Z,97501.70
2022-09-16T18:34:17.897Z,97513.94
2022-09-16T18:36:46.085Z,97509.29
2022-09-16T18:39:15.380Z,97497.39
2022-09-16T18:41:45.332Z,97504.89
2022-09-16T18:44:21.060Z,97507.79
2022-09-16T18:46:50.112Z,97499.07
2022-09-16T18:49:24.348Z,97495.51
2022-09-16T18:51:53.822Z,97490.23
2022-09-16T18:54:44.201Z,97495.37
2022-09-16T18:57:32.853Z,97498.70
2022-09-16T19:00:01.885Z,97491.76
2022-09-16T19:16:37.306Z,97429.83
2022-09-16T19:19:08.782Z,97403.16
2022-09-16T19:21:46.420Z,97366.92
2022-09-16T19:27:48.382Z,97392.97
2022-09-16T19:30:50.332Z,97405.16
2022-09-16T19:33:19.461Z,97402.58
2022-09-16T19:35:47.960Z,97403.33
2022-09-16T19:42:29.573Z,97429.30
2022-09-16T19:44:57.833Z,97419.61
2022-09-16T19:47:26.669Z,97401.94
2022-09-16T19:57:33.059Z,97393.27
2022-09-16T20:00:02.047Z,97407.70
2022-09-16T20:02:42.943Z,97420.56
2022-09-16T20:05:13.764Z,97419.84
2022-09-16T20:07:41.895Z,97422.27
2022-09-16T20:10:10.216Z,97426.80
2022-09-16T20:12:42.910Z,97430.20
2022-09-16T20:15:12.338Z,97427.39
2022-09-16T20:17:40.490Z,97426.52
2022-09-16T20:20:09.053Z,97421.74
2022-09-16T20:22:37.141Z,97417.00
2022-09-16T20:25:22.597Z,97414.52
2022-09-16T20:27:52.014Z,97422.95
2022-09-16T20:30:20.051Z,97432.92
2022-09-16T20:33:04.719Z,97438.23
2022-09-16T20:35:34.213Z,97429.95
2022-09-16T20:38:02.621Z,97421.06
2022-09-16T20:40:32.435Z,97414.14
2022-09-16T20:43:18.087Z,97415.67
2022-09-16T20:45:46.605Z,97414.94
2022-09-16T20:48:14.785Z,97413.80
2022-09-16T20:51:24.442Z,97412.02
2022-09-16T20:53:57.791Z,97408.14
2022-09-16T20:56:37.967Z,97410.13
2022-09-16T20:59:07.790Z,97420.52
2022-09-16T21:01:38.387Z,97430.84
2022-09-16T21:04:07.773Z,97442.07
2022-09-16T21:06:37.567Z,97437.98
2022-09-16T21:09:14.005Z,97434.23
2022-09-16T21:11:45.358Z,97443.21
2022-09-16T21:14:15.478Z,97453.64
2022-09-16T21:16:45.732Z,97464.54
2022-09-16T21:19:14.453Z,97469.59
2022-09-16T21:21:46.560Z,97471.23
2022-09-16T21:24:36.340Z,97474.33
2022-09-16T21:27:04.800Z,97474.80
2022-09-16T21:29:32.998Z,97467.17
2022-09-16T21:32:01.386Z,97464.14
2022-09-16T21:34:29.814Z,97462.90
2022-09-16T21:36:59.661Z,97456.21
2022-09-16T21:39:53.427Z,97468.90
2022-09-16T21:42:36.118Z,97467.11
2022-09-16T21:45:06.235Z,97470.80
2022-09-16T21:47:34.445Z,97478.73
2022-09-16T21:50:05.400Z,97477.04
2022-09-16T21:52:33.961Z,97476.01
2022-09-16T21:55:03.189Z,97475.80
2022-09-16T21:57:42.972Z,97480.74
2022-09-16T22:00:16.303Z,97475.60
2022-09-16T22:02:54.557Z,97473.39
2022-09-16T22:05:46.800Z,97470.38
2022-09-16T22:08:16.116Z,97468.95
2022-09-16T22:10:45.321Z,97461.52
2022-09-16T22:13:13.333Z,97457.21
2022-09-16T22:15:49.154Z,97449.80
2022-09-16T22:18:18.311Z,97446.59
2022-09-16T22:21:06.078Z,97437.56
2022-09-16T22:23:34.704Z,97438.66
2022-09-16T22:26:12.899Z,97439.00
2022-09-16T22:28:41.620Z,97430.72
2022-09-16T22:31:09.657Z,97420.30
2022-09-16T22:33:39.597Z,97407.52
2022-09-16T22:36:10.129Z,97399.98
2022-09-16T22:38:38.430Z,97401.45
2022-09-16T22:41:07.755Z,97407.48
2022-09-16T22:43:40.892Z,97416.11
2022-09-16T22:46:10.156Z,97398.92
2022-09-16T22:48:39.002Z,97387.92
2022-09-16T22:51:08.325Z,97384.32
2022-09-16T22:53:37.850Z,97378.13
2022-09-16T22:56:26.868Z,97380.15
2022-09-16T22:58:55.505Z,97376.30
2022-09-16T23:01:25.540Z,97370.94
2022-09-16T23:03:58.027Z,97367.09
2022-09-16T23:06:27.105Z,97363.11
2022-09-16T23:08:55.146Z,97358.42
2022-09-16T23:11:26.970Z,97357.91
2022-09-16T23:13:55.825Z,97348.52
2022-09-16T23:16:28.823Z,97352.98
2022-09-16T23:18:58.087Z,97354.16
2022-09-16T23:21:27.689Z,97348.52
2022-09-16T23:23:56.675Z,97348.80
2022-09-16T23:26:29.951Z,97345.40
2022-09-16T23:28:59.005Z,97338.48
2022-09-16T23:31:28.963Z,97334.66
2022-09-16T23:33:57.119Z,97336.83
2022-09-16T23:36:26.234Z,97334.40
2022-09-16T23:38:54.752Z,97327.86
2022-09-16T23:41:24.837Z,97324.55
2022-09-16T23:43:53.262Z,97324.14
2022-09-16T23:46:23.114Z,97327.33
2022-09-16T23:48:54.120Z,97329.88
2022-09-16T23:51:28.078Z,97333.83
2022-09-16T23:53:57.682Z,97333.19
2022-09-16T23:56:26.132Z,97342.22
2022-09-16T23:58:58.049Z,97344.46
